createdAt,value
2017-09-24T00:00:01.179Z,23.90
2017-09-24T00:02:28.782Z,24.27
2017-09-24T00:04:57.098Z,23.53
2017-09-24T00:07:24.650Z,24.13
2017-09-24T00:09:52.202Z,24.70
2017-09-24T00:12:19.765Z,23.93
2017-09-24T00:14:47.359Z,23.10
2017-09-24T00:17:14.910Z,23.53
2017-09-24T00:19:42.461Z,23.00
2017-09-24T00:22:10.015Z,23.57
2017-09-24T00:24:37.574Z,23.67
2017-09-24T00:27:05.153Z,23.37
2017-09-24T00:29:32.711Z,23.93
2017-09-24T00:32:00.262Z,23.80
2017-09-24T00:34:27.815Z,23.47
2017-09-24T00:36:55.370Z,23.80
2017-09-24T00:39:22.949Z,23.90
2017-09-24T00:41:50.502Z,23.80
2017-09-24T00:44:18.061Z,25.10
2017-09-24T00:46:45.616Z,24.80
2017-09-24T00:49:13.178Z,24.17
2017-09-24T00:51:40.762Z,24.67
2017-09-24T00:54:08.317Z,23.53
2017-09-24T00:56:35.875Z,23.50
2017-09-24T00:59:04.933Z,24.40
2017-09-24T01:01:32.487Z,24.60
2017-09-24T01:04:00.074Z,23.97
2017-09-24T01:06:27.626Z,24.07
2017-09-24T01:08:55.177Z,24.50
2017-09-24T01:11:22.734Z,24.27
2017-09-24T01:13:50.291Z,25.07
2017-09-24T01:16:17.878Z,22.93
2017-09-24T01:18:45.434Z,23.90
2017-09-24T01:21:12.997Z,23.63
2017-09-24T01:23:40.545Z,23.93
2017-09-24T01:26:08.103Z,25.20
2017-09-24T01:28:35.686Z,24.80
2017-09-24T01:31:04.018Z,24.77
2017-09-24T01:33:31.578Z,24.40
2017-09-24T01:35:59.132Z,24.93
2017-09-24T01:38:26.694Z,23.20
2017-09-24T01:40:54.270Z,23.83
2017-09-24T01:43:21.829Z,24.20
2017-09-24T01:45:49.385Z,25.33
2017-09-24T01:48:16.937Z,23.00
2017-09-24T01:50:44.486Z,24.80
2017-09-24T01:53:12.072Z,24.97
2017-09-24T01:55:39.622Z,24.20
2017-09-24T01:58:07.181Z,25.00
2017-09-24T02:00:34.734Z,21.83
2017-09-24T02:03:02.295Z,23.80
2017-09-24T02:05:29.875Z,23.10
2017-09-24T02:07:57.433Z,22.97
2017-09-24T02:10:24.990Z,23.10
2017-09-24T02:12:52.543Z,23.60
2017-09-24T02:15:20.097Z,22.80
2017-09-24T02:17:47.686Z,22.87
2017-09-24T02:20:16.019Z,24.80
2017-09-24T02:22:43.580Z,23.30
2017-09-24T02:25:11.138Z,24.90
2017-09-24T02:27:38.691Z,23.53
2017-09-24T02:30:06.274Z,24.13
2017-09-24T02:32:33.830Z,23.50
2017-09-24T02:35:01.398Z,24.37
2017-09-24T02:37:28.955Z,23.80
2017-09-24T02:39:56.506Z,24.67
2017-09-24T02:42:24.089Z,23.70
2017-09-24T02:44:51.652Z,22.90
2017-09-24T02:47:19.205Z,23.13
2017-09-24T02:49:46.761Z,22.97
2017-09-24T02:52:14.322Z,22.97
2017-09-24T02:54:41.906Z,23.77
2017-09-24T02:57:10.231Z,24.40
2017-09-24T02:59:37.795Z,23.87
2017-09-24T03:02:05.354Z,23.43
2017-09-24T03:04:32.910Z,23.50
2017-09-24T03:07:00.494Z,23.37
2017-09-24T03:09:28.041Z,23.03
2017-09-24T03:11:55.597Z,22.53
2017-09-24T03:14:23.163Z,24.03
2017-09-24T03:16:50.713Z,22.83
2017-09-24T03:19:18.305Z,23.00
2017-09-24T03:21:46.627Z,21.53
2017-09-24T03:24:14.179Z,22.03
2017-09-24T03:26:41.740Z,21.90
2017-09-24T03:29:09.318Z,21.67
2017-09-24T03:31:36.905Z,23.00
2017-09-24T03:34:04.473Z,22.70
2017-09-24T03:36:32.792Z,22.07
2017-09-24T03:39:00.348Z,21.33
2017-09-24T03:41:27.911Z,22.43
2017-09-24T03:43:55.696Z,22.50
2017-09-24T03:46:23.261Z,21.00
2017-09-24T03:48:50.824Z,20.40
2017-09-24T03:51:18.383Z,20.50
2017-09-24T03:53:45.951Z,20.73
2017-09-24T03:56:13.701Z,21.30
2017-09-24T03:58:41.254Z,21.70
2017-09-24T04:01:08.814Z,20.80
2017-09-24T04:03:36.486Z,21.97
2017-09-24T04:06:04.041Z,19.97
2017-09-24T04:08:31.618Z,20.20
2017-09-24T04:10:59.174Z,21.33
2017-09-24T04:13:26.730Z,21.73
2017-09-24T04:15:54.291Z,21.10
2017-09-24T04:18:21.850Z,21.93
2017-09-24T04:20:49.437Z,89.53
2017-09-24T04:23:17.802Z,87.30
2017-09-24T04:25:46.140Z,26.57
2017-09-24T04:28:13.691Z,21.40
2017-09-24T04:30:41.246Z,20.50
2017-09-24T04:33:08.829Z,21.67
2017-09-24T04:35:36.386Z,20.73
2017-09-24T04:38:03.942Z,21.33
2017-09-24T04:40:31.493Z,20.57
2017-09-24T04:42:59.049Z,20.87
2017-09-24T04:45:26.629Z,21.17
2017-09-24T04:47:54.188Z,20.70
2017-09-24T04:50:21.743Z,22.70
2017-09-24T04:52:49.297Z,22.73
2017-09-24T04:55:16.848Z,21.77
2017-09-24T04:57:44.433Z,21.73
2017-09-24T05:00:11.988Z,24.80
2017-09-24T05:02:39.544Z,22.40
2017-09-24T05:05:07.113Z,22.70
2017-09-24T05:07:34.675Z,23.80
2017-09-24T05:10:03.027Z,24.10
2017-09-24T05:12:30.585Z,26.10
2017-09-24T05:14:58.148Z,24.90
2017-09-24T05:17:25.706Z,25.70
2017-09-24T05:19:53.265Z,25.13
2017-09-24T05:22:20.842Z,26.80
2017-09-24T05:24:48.434Z,25.30
2017-09-24T05:27:15.991Z,27.77
2017-09-24T05:29:43.546Z,26.80
2017-09-24T05:32:11.098Z,27.20
2017-09-24T05:34:39.449Z,27.10
2017-09-24T05:37:07.002Z,28.87
2017-09-24T05:39:34.557Z,28.23
2017-09-24T05:42:02.117Z,38.73
2017-09-24T05:44:29.678Z,32.93
2017-09-24T05:46:57.266Z,30.10
2017-09-24T05:49:25.590Z,28.80
2017-09-24T05:51:53.646Z,29.23
2017-09-24T05:54:21.206Z,29.20
2017-09-24T05:56:48.765Z,29.60
2017-09-24T05:59:16.356Z,29.90
2017-09-24T06:01:43.918Z,32.20
2017-09-24T06:04:11.482Z,30.37
2017-09-24T06:06:39.045Z,32.00
2017-09-24T06:09:06.603Z,32.77
2017-09-24T06:11:34.188Z,33.50
2017-09-24T06:14:02.509Z,33.10
2017-09-24T06:16:30.070Z,34.13
2017-09-24T06:18:57.630Z,36.10
2017-09-24T06:21:25.188Z,39.03
2017-09-24T06:23:52.776Z,38.77
2017-09-24T06:26:20.341Z,37.20
2017-09-24T06:28:48.673Z,38.07
2017-09-24T06:31:16.230Z,38.43
2017-09-24T06:33:43.782Z,39.30
2017-09-24T06:36:11.378Z,41.13
2017-09-24T06:38:38.938Z,40.53
2017-09-24T06:41:06.497Z,41.97
2017-09-24T06:43:34.050Z,44.10
2017-09-24T06:46:01.606Z,43.87
2017-09-24T06:48:29.193Z,42.57
2017-09-24T06:50:57.522Z,42.30
2017-09-24T06:53:25.844Z,40.13
2017-09-24T06:55:53.402Z,41.90
2017-09-24T06:58:21.738Z,42.00
2017-09-24T07:00:49.326Z,41.67
2017-09-24T07:03:16.879Z,39.20
2017-09-24T07:05:44.443Z,42.10
2017-09-24T07:08:12.014Z,42.03
2017-09-24T07:10:39.576Z,39.80
2017-09-24T07:13:07.157Z,39.33
2017-09-24T07:15:35.478Z,40.53
2017-09-24T07:18:03.042Z,37.10
2017-09-24T07:20:30.621Z,39.73
2017-09-24T07:22:58.211Z,40.30
2017-09-24T07:25:25.793Z,39.33
2017-09-24T07:27:53.342Z,39.60
2017-09-24T07:30:20.896Z,41.30
2017-09-24T07:32:48.458Z,40.87
2017-09-24T07:35:16.029Z,38.23
2017-09-24T07:37:43.609Z,41.27
2017-09-24T07:40:11.166Z,37.80
2017-09-24T07:42:38.717Z,40.60
2017-09-24T07:45:06.269Z,39.07
2017-09-24T07:47:33.829Z,41.33
2017-09-24T07:50:01.408Z,41.97
2017-09-24T07:52:28.967Z,39.43
2017-09-24T07:54:56.522Z,40.67
2017-09-24T07:57:24.145Z,40.97
2017-09-24T07:59:51.697Z,39.87
2017-09-24T08:02:19.283Z,40.83
2017-09-24T08:04:46.848Z,37.43
2017-09-24T08:07:14.425Z,36.27
2017-09-24T08:09:41.985Z,38.60
2017-09-24T08:12:09.543Z,39.37
2017-09-24T08:14:37.125Z,40.00
2017-09-24T08:17:05.450Z,38.13
2017-09-24T08:19:33.026Z,37.93
2017-09-24T08:22:00.577Z,36.87
2017-09-24T08:24:28.131Z,37.97
2017-09-24T08:26:55.714Z,36.10
2017-09-24T08:29:23.285Z,36.97
2017-09-24T08:31:50.846Z,34.07
2017-09-24T08:34:18.406Z,36.90
2017-09-24T08:36:45.974Z,35.47
2017-09-24T08:39:13.557Z,37.10
2017-09-24T08:41:41.903Z,37.17
2017-09-24T08:44:09.467Z,38.93
2017-09-24T08:46:37.021Z,35.87
2017-09-24T08:49:04.594Z,35.57
2017-09-24T08:51:32.970Z,34.13
2017-09-24T08:54:01.301Z,33.57
2017-09-24T08:56:28.874Z,34.00
2017-09-24T08:58:56.436Z,32.30
2017-09-24T09:01:24.016Z,33.60
2017-09-24T09:03:51.617Z,34.30
2017-09-24T09:06:19.171Z,34.33
2017-09-24T09:08:46.732Z,32.60
2017-09-24T09:11:14.292Z,34.40
2017-09-24T09:13:41.862Z,33.20
2017-09-24T09:16:09.446Z,31.90
2017-09-24T09:18:37.006Z,31.97
2017-09-24T09:21:04.565Z,33.93
2017-09-24T09:23:32.126Z,33.23
2017-09-24T09:25:59.682Z,31.77
2017-09-24T09:28:27.270Z,32.80
2017-09-24T09:30:54.823Z,32.17
2017-09-24T09:33:22.382Z,30.53
2017-09-24T09:35:49.938Z,31.80
2017-09-24T09:38:17.498Z,32.20
2017-09-24T09:40:45.094Z,31.93
2017-09-24T09:43:13.419Z,32.30
2017-09-24T09:45:53.036Z,31.70
2017-09-24T09:48:20.630Z,33.27
2017-09-24T09:50:48.185Z,32.17
2017-09-24T09:53:15.739Z,32.03
2017-09-24T09:55:43.295Z,31.30
2017-09-24T09:58:10.896Z,34.23
2017-09-24T10:00:39.232Z,32.73
2017-09-24T10:03:06.804Z,30.97
2017-09-24T10:05:34.359Z,31.67
2017-09-24T10:08:09.902Z,31.70
2017-09-24T10:10:37.461Z,32.93
2017-09-24T10:13:05.029Z,31.67
2017-09-24T10:15:32.625Z,32.10
2017-09-24T10:18:00.984Z,31.50
2017-09-24T10:20:29.313Z,32.00
2017-09-24T10:22:57.157Z,30.83
2017-09-24T10:25:24.718Z,32.50
2017-09-24T10:27:52.549Z,32.40
2017-09-24T10:30:32.770Z,31.10
2017-09-24T10:33:00.354Z,29.87
2017-09-24T10:35:27.907Z,31.60
2017-09-24T10:37:55.467Z,31.90
2017-09-24T10:40:23.030Z,32.40
2017-09-24T10:42:50.582Z,31.60
2017-09-24T10:45:18.173Z,31.77
2017-09-24T10:47:46.494Z,31.80
2017-09-24T10:50:14.050Z,32.00
2017-09-24T10:52:41.603Z,33.47
2017-09-24T10:55:09.162Z,32.90
2017-09-24T10:57:36.745Z,31.80
2017-09-24T11:00:04.306Z,31.83
2017-09-24T11:02:31.866Z,31.93
2017-09-24T11:04:59.430Z,31.30
2017-09-24T11:07:26.986Z,34.97
2017-09-24T11:09:54.570Z,32.90
2017-09-24T11:12:22.891Z,32.17
2017-09-24T11:14:50.469Z,31.07
2017-09-24T11:17:18.032Z,31.33
2017-09-24T11:19:45.590Z,30.27
2017-09-24T11:22:13.171Z,32.30
2017-09-24T11:24:41.505Z,32.23
2017-09-24T11:27:09.082Z,34.50
2017-09-24T11:29:36.641Z,30.87
2017-09-24T11:32:04.197Z,32.00
2017-09-24T11:34:31.778Z,28.70
2017-09-24T11:36:59.338Z,31.97
2017-09-24T11:39:26.897Z,31.93
2017-09-24T11:41:54.454Z,31.10
2017-09-24T11:44:22.022Z,30.30
2017-09-24T11:46:49.606Z,31.20
2017-09-24T11:49:17.175Z,30.80
2017-09-24T11:51:44.734Z,30.23
2017-09-24T11:54:12.295Z,31.30
2017-09-24T11:56:39.850Z,31.77
2017-09-24T11:59:07.438Z,30.83
2017-09-24T12:01:34.993Z,31.37
2017-09-24T12:04:02.550Z,30.97
2017-09-24T12:06:30.110Z,32.67
2017-09-24T12:08:57.690Z,31.53
2017-09-24T12:11:25.266Z,33.00
2017-09-24T12:13:52.821Z,38.10
2017-09-24T12:16:21.144Z,42.47
2017-09-24T12:18:48.697Z,43.10
2017-09-24T12:21:16.254Z,62.17
2017-09-24T12:23:43.814Z,44.10
2017-09-24T12:26:11.371Z,41.00
2017-09-24T12:28:38.928Z,36.50
2017-09-24T12:31:06.485Z,36.40
2017-09-24T12:33:34.813Z,42.57
2017-09-24T12:36:02.373Z,35.27
2017-09-24T12:38:29.930Z,38.67
2017-09-24T12:40:57.490Z,34.93
2017-09-24T12:43:25.047Z,45.87
2017-09-24T12:45:52.608Z,34.70
2017-09-24T12:48:20.165Z,33.03
2017-09-24T12:50:47.714Z,31.30
2017-09-24T12:53:15.298Z,31.23
2017-09-24T12:55:42.861Z,32.27
2017-09-24T12:58:10.415Z,32.17
2017-09-24T13:00:38.006Z,31.67
2017-09-24T13:03:06.326Z,30.10
2017-09-24T13:05:33.885Z,33.20
2017-09-24T13:08:01.468Z,32.53
2017-09-24T13:10:29.025Z,32.37
2017-09-24T13:12:56.578Z,32.40
2017-09-24T13:15:24.172Z,32.47
2017-09-24T13:17:52.489Z,34.47
2017-09-24T13:20:20.048Z,34.93
2017-09-24T13:22:47.639Z,35.07
2017-09-24T13:25:15.202Z,35.10
2017-09-24T13:27:42.753Z,34.20
2017-09-24T13:30:10.333Z,38.30
2017-09-24T13:32:37.886Z,36.70
2017-09-24T13:35:06.946Z,38.53
2017-09-24T13:37:34.498Z,36.63
2017-09-24T13:40:02.087Z,35.20
2017-09-24T13:42:29.673Z,34.50
2017-09-24T13:44:57.997Z,35.27
2017-09-24T13:47:25.563Z,41.83
2017-09-24T13:49:53.121Z,35.73
2017-09-24T13:52:20.686Z,35.37
2017-09-24T13:54:48.281Z,33.80
2017-09-24T13:57:16.614Z,35.57
2017-09-24T13:59:44.171Z,34.57
2017-09-24T14:02:11.727Z,36.70
2017-09-24T14:04:39.290Z,32.83
2017-09-24T14:07:06.870Z,33.80
2017-09-24T14:09:34.430Z,33.70
2017-09-24T14:12:01.986Z,34.13
2017-09-24T14:14:29.541Z,37.63
2017-09-24T14:16:57.098Z,39.27
2017-09-24T14:19:24.678Z,36.53
2017-09-24T14:21:52.237Z,42.90
2017-09-24T14:24:19.798Z,42.83
2017-09-24T14:26:47.345Z,38.63
2017-09-24T14:29:14.902Z,36.47
2017-09-24T14:31:42.486Z,35.80
2017-09-24T14:34:10.825Z,36.13
2017-09-24T14:36:38.393Z,39.10
2017-09-24T14:39:05.946Z,42.97
2017-09-24T14:41:33.499Z,40.40
2017-09-24T14:44:01.080Z,46.23
2017-09-24T14:46:29.403Z,38.93
2017-09-24T14:48:56.958Z,37.67
2017-09-24T14:51:24.514Z,41.93
2017-09-24T14:53:52.074Z,54.33
2017-09-24T14:56:19.658Z,45.60
2017-09-24T14:58:47.225Z,40.67
2017-09-24T15:01:14.785Z,39.47
2017-09-24T15:03:42.345Z,43.10
2017-09-24T15:06:09.924Z,37.60
2017-09-24T15:08:37.504Z,40.77
2017-09-24T15:11:05.068Z,40.97
2017-09-24T15:13:33.393Z,40.90
2017-09-24T15:16:00.954Z,40.43
2017-09-24T15:18:28.506Z,40.40
2017-09-24T15:20:56.097Z,42.30
2017-09-24T15:23:23.654Z,39.10
2017-09-24T15:25:51.209Z,41.40
2017-09-24T15:28:18.762Z,53.87
2017-09-24T15:30:46.341Z,101.77
2017-09-24T15:33:13.922Z,59.13
2017-09-24T15:35:42.242Z,55.67
2017-09-24T15:38:09.797Z,53.10
2017-09-24T15:40:37.369Z,42.33
2017-09-24T15:43:04.925Z,39.63
2017-09-24T15:45:32.517Z,41.13
2017-09-24T15:48:00.074Z,41.87
2017-09-24T15:50:27.631Z,40.90
2017-09-24T15:52:55.189Z,40.07
2017-09-24T15:55:22.750Z,38.77
2017-09-24T15:57:50.345Z,40.10
2017-09-24T16:00:17.910Z,39.80
2017-09-24T16:02:45.471Z,40.23
2017-09-24T16:05:13.054Z,41.17
2017-09-24T16:07:40.606Z,39.47
2017-09-24T16:10:08.187Z,41.03
2017-09-24T16:12:35.753Z,39.77
2017-09-24T16:15:03.316Z,39.83
2017-09-24T16:17:30.872Z,40.30
2017-09-24T16:19:58.432Z,38.10
2017-09-24T16:22:26.022Z,40.10
2017-09-24T16:24:54.343Z,39.67
2017-09-24T16:27:21.901Z,40.03
2017-09-24T16:29:49.457Z,38.30
2017-09-24T16:32:17.025Z,40.40
2017-09-24T16:34:44.611Z,40.20
2017-09-24T16:37:12.166Z,39.80
2017-09-24T16:39:39.721Z,42.13
2017-09-24T16:42:07.299Z,41.20
2017-09-24T16:44:34.858Z,41.07
2017-09-24T16:47:02.447Z,41.20
2017-09-24T16:49:30.002Z,43.43
2017-09-24T16:51:57.562Z,43.70
2017-09-24T16:54:25.114Z,43.13
2017-09-24T16:56:52.676Z,42.77
2017-09-24T16:59:21.026Z,41.90
2017-09-24T17:01:48.591Z,42.90
2017-09-24T17:04:16.928Z,41.43
2017-09-24T17:06:44.486Z,42.50
2017-09-24T17:09:12.058Z,42.10
2017-09-24T17:11:39.650Z,42.33
2017-09-24T17:14:07.974Z,43.90
2017-09-24T17:16:35.533Z,42.83
2017-09-24T17:19:03.088Z,41.73
2017-09-24T17:21:30.654Z,42.67
2017-09-24T17:23:58.241Z,42.83
2017-09-24T17:26:25.803Z,45.90
2017-09-24T17:28:53.375Z,46.07
2017-09-24T17:31:20.937Z,44.80
2017-09-24T17:33:49.261Z,43.07
2017-09-24T17:36:16.846Z,43.30
2017-09-24T17:38:44.403Z,45.27
2017-09-24T17:41:11.963Z,44.07
2017-09-24T17:43:39.533Z,44.10
2017-09-24T17:46:07.162Z,52.23
2017-09-24T17:48:34.862Z,49.40
2017-09-24T17:51:02.426Z,45.90
2017-09-24T17:53:29.986Z,45.57
2017-09-24T17:55:57.540Z,43.70
2017-09-24T17:58:25.095Z,41.70
2017-09-24T18:00:52.689Z,42.93
2017-09-24T18:03:20.250Z,44.43
2017-09-24T18:05:47.805Z,44.03
2017-09-24T18:08:16.123Z,44.40
2017-09-24T18:10:43.681Z,44.70
2017-09-24T18:13:11.335Z,44.20
2017-09-24T18:15:39.030Z,107.03
2017-09-24T18:18:06.598Z,103.10
2017-09-24T18:20:34.161Z,49.27
2017-09-24T18:23:02.485Z,45.73
2017-09-24T18:25:30.149Z,46.37
2017-09-24T18:27:57.705Z,45.93
2017-09-24T18:30:25.265Z,46.77
2017-09-24T18:32:52.924Z,46.13
2017-09-24T18:35:20.577Z,45.63
2017-09-24T18:37:48.184Z,46.67
2017-09-24T18:40:16.539Z,46.07
2017-09-24T18:42:44.094Z,45.97
2017-09-24T18:45:12.615Z,47.27
2017-09-24T18:47:40.170Z,46.53
2017-09-24T18:50:07.753Z,47.20
2017-09-24T18:52:36.082Z,46.37
2017-09-24T18:55:03.654Z,47.67
2017-09-24T18:57:31.201Z,47.67
2017-09-24T18:59:58.755Z,47.57
2017-09-24T19:02:26.347Z,47.03
2017-09-24T19:04:54.679Z,51.67
2017-09-24T19:07:22.243Z,49.30
2017-09-24T19:09:49.795Z,49.13
2017-09-24T19:12:17.356Z,48.00
2017-09-24T19:14:44.943Z,48.83
2017-09-24T19:17:12.510Z,47.60
2017-09-24T19:19:40.089Z,50.00
2017-09-24T19:22:08.415Z,51.07
2017-09-24T19:24:35.971Z,49.47
2017-09-24T19:27:03.553Z,48.90
2017-09-24T19:29:31.116Z,48.63
2017-09-24T19:31:58.665Z,46.87
2017-09-24T19:34:26.227Z,46.63
2017-09-24T19:36:53.788Z,49.43
2017-09-24T19:39:22.341Z,48.57
2017-09-24T19:41:50.823Z,47.90
2017-09-24T19:44:18.382Z,51.70
2017-09-24T19:46:45.958Z,48.83
2017-09-24T19:49:13.510Z,46.37
2017-09-24T19:51:41.398Z,44.73
2017-09-24T19:54:08.956Z,47.37
2017-09-24T19:56:37.473Z,46.20
2017-09-24T19:59:05.798Z,46.43
2017-09-24T20:01:33.358Z,45.27
2017-09-24T20:04:00.950Z,46.60
2017-09-24T20:06:28.502Z,44.37
2017-09-24T20:08:56.355Z,48.90
2017-09-24T20:11:23.921Z,45.43
2017-09-24T20:13:51.829Z,46.60
2017-09-24T20:16:19.414Z,45.97
2017-09-24T20:18:46.971Z,43.50
2017-09-24T20:21:14.530Z,45.30
2017-09-24T20:23:42.094Z,43.23
2017-09-24T20:26:09.655Z,43.10
2017-09-24T20:28:37.241Z,39.77
2017-09-24T20:31:04.802Z,41.43
2017-09-24T20:33:32.374Z,41.90
2017-09-24T20:36:00.707Z,41.80
2017-09-24T20:38:28.261Z,40.33
2017-09-24T20:40:55.847Z,39.87
2017-09-24T20:43:23.406Z,39.60
2017-09-24T20:45:50.959Z,39.23
2017-09-24T20:48:18.524Z,40.33
2017-09-24T20:50:46.078Z,40.20
2017-09-24T20:53:13.742Z,37.87
2017-09-24T20:55:41.305Z,37.17
2017-09-24T20:58:08.866Z,37.53
2017-09-24T21:00:36.425Z,36.60
2017-09-24T21:03:03.994Z,36.07
2017-09-24T21:05:31.574Z,36.30
2017-09-24T21:07:59.894Z,35.53
2017-09-24T21:10:27.447Z,36.37
2017-09-24T21:12:54.998Z,35.17
2017-09-24T21:15:22.553Z,34.73
2017-09-24T21:17:50.153Z,36.27
2017-09-24T21:20:17.709Z,34.23
2017-09-24T21:22:45.342Z,34.73
2017-09-24T21:25:12.902Z,35.00
2017-09-24T21:27:41.309Z,35.10
2017-09-24T21:30:08.909Z,35.23
2017-09-24T21:32:37.226Z,34.10
2017-09-24T21:35:04.785Z,36.40
2017-09-24T21:37:32.338Z,34.60
2017-09-24T21:39:59.890Z,35.80
2017-09-24T21:42:27.470Z,36.50
2017-09-24T21:44:55.025Z,34.60
2017-09-24T21:47:22.577Z,34.30
2017-09-24T21:49:50.157Z,33.50
2017-09-24T21:52:17.718Z,35.77
2017-09-24T21:54:45.315Z,36.23
2017-09-24T21:57:13.633Z,36.07
2017-09-24T21:59:41.186Z,35.23
2017-09-24T22:02:08.742Z,36.37
2017-09-24T22:04:36.297Z,35.50
2017-09-24T22:07:03.874Z,37.00
2017-09-24T22:09:31.437Z,35.47
2017-09-24T22:11:59.053Z,36.30
2017-09-24T22:14:26.611Z,37.60
2017-09-24T22:16:54.165Z,37.00
2017-09-24T22:19:22.533Z,36.10
2017-09-24T22:21:50.102Z,35.37
2017-09-24T22:24:18.463Z,36.70
2017-09-24T22:26:46.022Z,36.57
2017-09-24T22:29:14.366Z,36.37
2017-09-24T22:31:41.947Z,36.67
2017-09-24T22:34:09.516Z,37.43
2017-09-24T22:36:37.842Z,35.47
2017-09-24T22:39:05.399Z,35.30
2017-09-24T22:41:32.965Z,35.20
2017-09-24T22:44:00.546Z,34.03
2017-09-24T22:46:28.105Z,33.87
2017-09-24T22:48:55.658Z,33.70
2017-09-24T22:51:23.209Z,33.20
2017-09-24T22:53:50.771Z,32.10
2017-09-24T22:56:18.366Z,33.87
2017-09-24T22:58:46.688Z,33.97
2017-09-24T23:01:14.267Z,35.10
2017-09-24T23:03:41.827Z,32.90
2017-09-24T23:06:09.386Z,34.90
2017-09-24T23:08:36.978Z,39.97
2017-09-24T23:11:05.298Z,49.60
2017-09-24T23:13:32.861Z,49.97
2017-09-24T23:16:00.420Z,49.80
2017-09-24T23:18:27.982Z,46.23
2017-09-24T23:20:55.574Z,40.17
2017-09-24T23:23:23.133Z,37.50
2017-09-24T23:25:50.690Z,34.23
2017-09-24T23:28:18.248Z,34.27
2017-09-24T23:30:45.807Z,34.30
2017-09-24T23:33:13.390Z,33.47
2017-09-24T23:35:41.738Z,33.30
2017-09-24T23:38:09.397Z,32.03
2017-09-24T23:40:36.950Z,29.67
2017-09-24T23:43:04.505Z,29.83
2017-09-24T23:45:32.091Z,28.90
2017-09-24T23:47:59.646Z,28.80
2017-09-24T23:50:27.994Z,27.10
2017-09-24T23:52:55.554Z,26.33
2017-09-24T23:55:23.125Z,25.40
2017-09-24T23:57:50.702Z,26.23
